sensor_id;sensor_type;location;lat;lon;timestamp;P1;durP1;ratioP1;P2;durP2;ratioP2
4957;SDS011;2494;51.872;9.688;2024-01-15T00:01:31;17.10;;;9.80;;
4957;SDS011;2494;51.872;9.688;2024-01-15T00:04:16;17.00;;;9.53;;
4957;SDS011;2494;51.872;9.688;2024-01-15T00:07:01;16.47;;;8.43;;
4957;SDS011;2494;51.872;9.688;2024-01-15T00:09:46;15.23;;;9.70;;
4957;SDS011;2494;51.872;9.688;2024-01-15T00:12:31;16.90;;;10.73;;
4957;SDS011;2494;51.872;9.688;2024-01-15T00:15:16;20.03;;;10.30;;
4957;SDS011;2494;51.872;9.688;2024-01-15T00:18:03;15.67;;;9.20;;
4957;SDS011;2494;51.872;9.688;2024-01-15T00:20:48;7.77;;;6.00;;
4957;SDS011;2494;51.872;9.688;2024-01-15T00:23:33;16.03;;;8.67;;
4957;SDS011;2494;51.872;9.688;2024-01-15T00:26:18;15.40;;;8.87;;
4957;SDS011;2494;51.872;9.688;2024-01-15T00:29:03;11.40;;;7.63;;
4957;SDS011;2494;51.872;9.688;2024-01-15T00:31:48;15.07;;;10.17;;
4957;SDS011;2494;51.872;9.688;2024-01-15T00:34:35;17.87;;;8.40;;
4957;SDS011;2494;51.872;9.688;2024-01-15T00:37:20;19.10;;;9.00;;
4957;SDS011;2494;51.872;9.688;2024-01-15T00:40:06;15.50;;;9.40;;
4957;SDS011;2494;51.872;9.688;2024-01-15T00:42:51;19.50;;;9.87;;
4957;SDS011;2494;51.872;9.688;2024-01-15T00:45:36;20.33;;;10.87;;
4957;SDS011;2494;51.872;9.688;2024-01-15T00:48:22;23.80;;;11.07;;
4957;SDS011;2494;51.872;9.688;2024-01-15T00:51:08;15.53;;;10.17;;
4957;SDS011;2494;51.872;9.688;2024-01-15T00:53:53;18.20;;;10.37;;
4957;SDS011;2494;51.872;9.688;2024-01-15T00:56:38;19.63;;;9.23;;
4957;SDS011;2494;51.872;9.688;2024-01-15T00:59:23;19.43;;;10.30;;
4957;SDS011;2494;51.872;9.688;2024-01-15T01:02:08;19.83;;;9.67;;
4957;SDS011;2494;51.872;9.688;2024-01-15T01:04:53;15.23;;;9.57;;
4957;SDS011;2494;51.872;9.688;2024-01-15T01:07:39;6.90;;;5.80;;
4957;SDS011;2494;51.872;9.688;2024-01-15T01:10:24;16.20;;;8.83;;
4957;SDS011;2494;51.872;9.688;2024-01-15T01:13:09;13.57;;;8.77;;
4957;SDS011;2494;51.872;9.688;2024-01-15T01:15:54;19.40;;;10.27;;
4957;SDS011;2494;51.872;9.688;2024-01-15T01:18:39;16.83;;;9.40;;
4957;SDS011;2494;51.872;9.688;2024-01-15T01:21:24;15.13;;;8.07;;
4957;SDS011;2494;51.872;9.688;2024-01-15T01:24:11;16.50;;;8.13;;
4957;SDS011;2494;51.872;9.688;2024-01-15T01:26:56;20.63;;;8.60;;
4957;SDS011;2494;51.872;9.688;2024-01-15T01:29:41;14.57;;;8.10;;
4957;SDS011;2494;51.872;9.688;2024-01-15T01:32:26;14.17;;;8.77;;
4957;SDS011;2494;51.872;9.688;2024-01-15T01:35:12;12.90;;;7.50;;
4957;SDS011;2494;51.872;9.688;2024-01-15T01:37:58;15.80;;;8.17;;
4957;SDS011;2494;51.872;9.688;2024-01-15T01:40:44;14.77;;;8.10;;
4957;SDS011;2494;51.872;9.688;2024-01-15T01:43:29;11.83;;;7.70;;
4957;SDS011;2494;51.872;9.688;2024-01-15T01:46:14;13.37;;;8.80;;
4957;SDS011;2494;51.872;9.688;2024-01-15T01:49:00;15.30;;;7.83;;
4957;SDS011;2494;51.872;9.688;2024-01-15T01:51:48;14.70;;;8.57;;
4957;SDS011;2494;51.872;9.688;2024-01-15T01:54:34;13.77;;;8.50;;
4957;SDS011;2494;51.872;9.688;2024-01-15T01:57:20;16.23;;;8.73;;
4957;SDS011;2494;51.872;9.688;2024-01-15T02:00:06;12.20;;;7.90;;
4957;SDS011;2494;51.872;9.688;2024-01-15T02:02:52;12.73;;;7.50;;
4957;SDS011;2494;51.872;9.688;2024-01-15T02:05:37;9.73;;;6.60;;
4957;SDS011;2494;51.872;9.688;2024-01-15T02:08:24;16.73;;;7.40;;
4957;SDS011;2494;51.872;9.688;2024-01-15T02:11:10;14.97;;;7.37;;
4957;SDS011;2494;51.872;9.688;2024-01-15T02:13:57;10.57;;;7.90;;
4957;SDS011;2494;51.872;9.688;2024-01-15T02:16:42;14.77;;;7.60;;
4957;SDS011;2494;51.872;9.688;2024-01-15T02:19:27;10.87;;;7.17;;
4957;SDS011;2494;51.872;9.688;2024-01-15T02:22:12;20.10;;;8.37;;
4957;SDS011;2494;51.872;9.688;2024-01-15T02:24:58;12.50;;;5.67;;
4957;SDS011;2494;51.872;9.688;2024-01-15T02:27:43;10.00;;;5.60;;
4957;SDS011;2494;51.872;9.688;2024-01-15T02:30:29;13.40;;;5.90;;
4957;SDS011;2494;51.872;9.688;2024-01-15T02:33:14;9.13;;;3.77;;
4957;SDS011;2494;51.872;9.688;2024-01-15T02:35:59;10.37;;;4.87;;
4957;SDS011;2494;51.872;9.688;2024-01-15T02:38:44;5.87;;;4.47;;
4957;SDS011;2494;51.872;9.688;2024-01-15T02:41:30;9.80;;;5.03;;
4957;SDS011;2494;51.872;9.688;2024-01-15T02:44:15;9.63;;;4.53;;
4957;SDS011;2494;51.872;9.688;2024-01-15T02:47:00;10.40;;;3.70;;
4957;SDS011;2494;51.872;9.688;2024-01-15T02:49:46;10.30;;;4.40;;
4957;SDS011;2494;51.872;9.688;2024-01-15T02:52:31;7.57;;;4.70;;
4957;SDS011;2494;51.872;9.688;2024-01-15T02:55:16;12.20;;;4.17;;
4957;SDS011;2494;51.872;9.688;2024-01-15T02:58:02;10.73;;;4.57;;
4957;SDS011;2494;51.872;9.688;2024-01-15T03:00:47;10.07;;;5.07;;
4957;SDS011;2494;51.872;9.688;2024-01-15T03:03:32;14.33;;;4.67;;
4957;SDS011;2494;51.872;9.688;2024-01-15T03:06:17;11.63;;;5.17;;
4957;SDS011;2494;51.872;9.688;2024-01-15T03:09:02;9.70;;;5.20;;
4957;SDS011;2494;51.872;9.688;2024-01-15T03:11:47;11.90;;;4.90;;
4957;SDS011;2494;51.872;9.688;2024-01-15T03:14:34;12.57;;;5.40;;
4957;SDS011;2494;51.872;9.688;2024-01-15T03:17:19;9.03;;;5.03;;
4957;SDS011;2494;51.872;9.688;2024-01-15T03:20:05;13.57;;;5.13;;
4957;SDS011;2494;51.872;9.688;2024-01-15T03:22:50;12.07;;;5.47;;
4957;SDS011;2494;51.872;9.688;2024-01-15T03:25:35;9.27;;;5.30;;
4957;SDS011;2494;51.872;9.688;2024-01-15T03:28:20;10.30;;;5.27;;
4957;SDS011;2494;51.872;9.688;2024-01-15T03:31:07;16.50;;;5.50;;
4957;SDS011;2494;51.872;9.688;2024-01-15T03:33:52;25.27;;;5.90;;
4957;SDS011;2494;51.872;9.688;2024-01-15T03:36:37;10.43;;;6.00;;
4957;SDS011;2494;51.872;9.688;2024-01-15T03:39:22;16.03;;;6.37;;
4957;SDS011;2494;51.872;9.688;2024-01-15T03:42:07;16.10;;;6.37;;
4957;SDS011;2494;51.872;9.688;2024-01-15T03:44:52;16.40;;;5.73;;
4957;SDS011;2494;51.872;9.688;2024-01-15T03:47:38;18.30;;;8.67;;
4957;SDS011;2494;51.872;9.688;2024-01-15T03:50:23;10.47;;;6.23;;
4957;SDS011;2494;51.872;9.688;2024-01-15T03:53:08;11.30;;;6.83;;
4957;SDS011;2494;51.872;9.688;2024-01-15T03:55:53;10.97;;;5.80;;
4957;SDS011;2494;51.872;9.688;2024-01-15T03:58:39;13.53;;;5.97;;
4957;SDS011;2494;51.872;9.688;2024-01-15T04:01:24;16.30;;;7.23;;
4957;SDS011;2494;51.872;9.688;2024-01-15T04:04:10;15.67;;;5.40;;
4957;SDS011;2494;51.872;9.688;2024-01-15T04:06:55;15.87;;;6.20;;
4957;SDS011;2494;51.872;9.688;2024-01-15T04:09:40;10.30;;;6.10;;
4957;SDS011;2494;51.872;9.688;2024-01-15T04:12:25;11.63;;;5.57;;
4957;SDS011;2494;51.872;9.688;2024-01-15T04:15:10;18.70;;;7.13;;
4957;SDS011;2494;51.872;9.688;2024-01-15T04:17:55;9.43;;;5.47;;
4957;SDS011;2494;51.872;9.688;2024-01-15T04:20:41;9.20;;;5.40;;
4957;SDS011;2494;51.872;9.688;2024-01-15T04:23:27;12.00;;;6.83;;
4957;SDS011;2494;51.872;9.688;2024-01-15T04:26:12;6.90;;;5.57;;
4957;SDS011;2494;51.872;9.688;2024-01-15T04:28:57;13.93;;;6.27;;
4957;SDS011;2494;51.872;9.688;2024-01-15T04:31:42;14.53;;;5.73;;
4957;SDS011;2494;51.872;9.688;2024-01-15T04:34:27;14.80;;;6.77;;
4957;SDS011;2494;51.872;9.688;2024-01-15T04:37:14;14.07;;;7.27;;
4957;SDS011;2494;51.872;9.688;2024-01-15T04:39:59;27.10;;;8.33;;
4957;SDS011;2494;51.872;9.688;2024-01-15T04:42:44;17.07;;;8.30;;
4957;SDS011;2494;51.872;9.688;2024-01-15T04:45:29;12.63;;;7.90;;
4957;SDS011;2494;51.872;9.688;2024-01-15T04:48:14;11.80;;;6.03;;
4957;SDS011;2494;51.872;9.688;2024-01-15T04:50:59;15.17;;;8.70;;
4957;SDS011;2494;51.872;9.688;2024-01-15T04:53:46;15.57;;;10.53;;
4957;SDS011;2494;51.872;9.688;2024-01-15T04:56:31;12.93;;;7.80;;
4957;SDS011;2494;51.872;9.688;2024-01-15T04:59:16;16.20;;;8.10;;
4957;SDS011;2494;51.872;9.688;2024-01-15T05:02:01;16.63;;;7.97;;
4957;SDS011;2494;51.872;9.688;2024-01-15T05:04:46;15.77;;;8.50;;
4957;SDS011;2494;51.872;9.688;2024-01-15T05:07:31;17.20;;;9.00;;
4957;SDS011;2494;51.872;9.688;2024-01-15T05:10:18;20.40;;;8.93;;
4957;SDS011;2494;51.872;9.688;2024-01-15T05:13:03;10.63;;;6.43;;
4957;SDS011;2494;51.872;9.688;2024-01-15T05:15:48;17.90;;;9.07;;
4957;SDS011;2494;51.872;9.688;2024-01-15T05:18:33;16.87;;;7.03;;
4957;SDS011;2494;51.872;9.688;2024-01-15T05:21:18;25.07;;;8.30;;
4957;SDS011;2494;51.872;9.688;2024-01-15T05:24:03;18.77;;;8.07;;
4957;SDS011;2494;51.872;9.688;2024-01-15T05:26:49;21.70;;;8.60;;
4957;SDS011;2494;51.872;9.688;2024-01-15T05:29:34;16.33;;;9.10;;
4957;SDS011;2494;51.872;9.688;2024-01-15T05:32:19;12.33;;;7.40;;
4957;SDS011;2494;51.872;9.688;2024-01-15T05:35:04;13.10;;;7.60;;
4957;SDS011;2494;51.872;9.688;2024-01-15T05:37:50;15.87;;;6.97;;
4957;SDS011;2494;51.872;9.688;2024-01-15T05:40:35;15.63;;;6.00;;
4957;SDS011;2494;51.872;9.688;2024-01-15T05:43:21;11.60;;;6.07;;
4957;SDS011;2494;51.872;9.688;2024-01-15T05:46:06;15.90;;;6.27;;
4957;SDS011;2494;51.872;9.688;2024-01-15T05:48:51;9.70;;;6.43;;
4957;SDS011;2494;51.872;9.688;2024-01-15T05:51:36;13.23;;;6.17;;
4957;SDS011;2494;51.872;9.688;2024-01-15T05:54:21;11.13;;;5.43;;
4957;SDS011;2494;51.872;9.688;2024-01-15T05:57:06;9.87;;;5.80;;
4957;SDS011;2494;51.872;9.688;2024-01-15T05:59:52;21.90;;;6.67;;
4957;SDS011;2494;51.872;9.688;2024-01-15T06:02:37;18.40;;;8.40;;
4957;SDS011;2494;51.872;9.688;2024-01-15T06:05:23;11.60;;;7.13;;
4957;SDS011;2494;51.872;9.688;2024-01-15T06:08:08;12.03;;;6.27;;
4957;SDS011;2494;51.872;9.688;2024-01-15T06:10:55;9.83;;;5.87;;
4957;SDS011;2494;51.872;9.688;2024-01-15T06:13:40;12.50;;;6.50;;
4957;SDS011;2494;51.872;9.688;2024-01-15T06:16:27;15.00;;;8.70;;
4957;SDS011;2494;51.872;9.688;2024-01-15T06:19:12;12.73;;;6.47;;
4957;SDS011;2494;51.872;9.688;2024-01-15T06:21:57;16.87;;;7.93;;
4957;SDS011;2494;51.872;9.688;2024-01-15T06:24:42;14.63;;;8.30;;
4957;SDS011;2494;51.872;9.688;2024-01-15T06:27:27;12.37;;;7.10;;
4957;SDS011;2494;51.872;9.688;2024-01-15T06:30:13;15.07;;;8.43;;
4957;SDS011;2494;51.872;9.688;2024-01-15T06:32:59;13.90;;;8.17;;
4957;SDS011;2494;51.872;9.688;2024-01-15T06:36:02;13.67;;;7.87;;
4957;SDS011;2494;51.872;9.688;2024-01-15T06:38:48;23.93;;;7.87;;
4957;SDS011;2494;51.872;9.688;2024-01-15T06:41:33;10.97;;;7.37;;
4957;SDS011;2494;51.872;9.688;2024-01-15T06:44:17;13.90;;;6.97;;
4957;SDS011;2494;51.872;9.688;2024-01-15T06:47:05;10.37;;;6.90;;
4957;SDS011;2494;51.872;9.688;2024-01-15T06:49:51;8.17;;;7.10;;
4957;SDS011;2494;51.872;9.688;2024-01-15T06:52:36;14.87;;;8.07;;
4957;SDS011;2494;51.872;9.688;2024-01-15T06:55:21;10.67;;;6.40;;
4957;SDS011;2494;51.872;9.688;2024-01-15T06:58:06;37.80;;;18.80;;
4957;SDS011;2494;51.872;9.688;2024-01-15T07:00:51;16.00;;;8.13;;
4957;SDS011;2494;51.872;9.688;2024-01-15T07:03:36;9.37;;;5.87;;
4957;SDS011;2494;51.872;9.688;2024-01-15T07:06:22;13.27;;;8.40;;
4957;SDS011;2494;51.872;9.688;2024-01-15T07:09:07;13.90;;;7.20;;
4957;SDS011;2494;51.872;9.688;2024-01-15T07:11:52;11.87;;;6.50;;
4957;SDS011;2494;51.872;9.688;2024-01-15T07:14:38;10.83;;;6.77;;
4957;SDS011;2494;51.872;9.688;2024-01-15T07:17:23;9.80;;;7.00;;
4957;SDS011;2494;51.872;9.688;2024-01-15T07:20:08;11.67;;;7.20;;
4957;SDS011;2494;51.872;9.688;2024-01-15T07:22:55;9.10;;;4.40;;
4957;SDS011;2494;51.872;9.688;2024-01-15T07:25:40;10.20;;;5.23;;
4957;SDS011;2494;51.872;9.688;2024-01-15T07:28:25;23.37;;;10.47;;
4957;SDS011;2494;51.872;9.688;2024-01-15T07:31:14;11.40;;;6.97;;
4957;SDS011;2494;51.872;9.688;2024-01-15T07:34:00;13.40;;;6.17;;
4957;SDS011;2494;51.872;9.688;2024-01-15T07:36:45;10.93;;;6.80;;
4957;SDS011;2494;51.872;9.688;2024-01-15T07:39:32;9.73;;;6.87;;
4957;SDS011;2494;51.872;9.688;2024-01-15T07:42:18;9.17;;;5.77;;
4957;SDS011;2494;51.872;9.688;2024-01-15T07:45:03;9.10;;;6.67;;
4957;SDS011;2494;51.872;9.688;2024-01-15T07:47:48;7.47;;;4.80;;
4957;SDS011;2494;51.872;9.688;2024-01-15T07:50:34;6.93;;;6.10;;
4957;SDS011;2494;51.872;9.688;2024-01-15T07:53:19;11.07;;;7.10;;
4957;SDS011;2494;51.872;9.688;2024-01-15T07:56:05;10.90;;;6.90;;
4957;SDS011;2494;51.872;9.688;2024-01-15T07:58:50;7.90;;;6.20;;
4957;SDS011;2494;51.872;9.688;2024-01-15T08:01:35;12.10;;;5.90;;
4957;SDS011;2494;51.872;9.688;2024-01-15T08:04:20;24.13;;;8.17;;
4957;SDS011;2494;51.872;9.688;2024-01-15T08:07:06;9.40;;;6.60;;
4957;SDS011;2494;51.872;9.688;2024-01-15T08:09:51;13.50;;;6.60;;
4957;SDS011;2494;51.872;9.688;2024-01-15T08:12:38;8.00;;;6.80;;
4957;SDS011;2494;51.872;9.688;2024-01-15T08:15:23;16.57;;;8.90;;
4957;SDS011;2494;51.872;9.688;2024-01-15T08:18:08;15.43;;;7.20;;
4957;SDS011;2494;51.872;9.688;2024-01-15T08:20:54;14.73;;;7.97;;
4957;SDS011;2494;51.872;9.688;2024-01-15T08:23:38;11.50;;;7.00;;
4957;SDS011;2494;51.872;9.688;2024-01-15T08:26:24;18.83;;;7.53;;
4957;SDS011;2494;51.872;9.688;2024-01-15T08:29:10;14.20;;;7.13;;
4957;SDS011;2494;51.872;9.688;2024-01-15T08:31:55;18.43;;;7.17;;
4957;SDS011;2494;51.872;9.688;2024-01-15T08:34:40;14.17;;;7.70;;
4957;SDS011;2494;51.872;9.688;2024-01-15T08:37:25;18.97;;;9.80;;
4957;SDS011;2494;51.872;9.688;2024-01-15T08:40:10;8.00;;;5.80;;
4957;SDS011;2494;51.872;9.688;2024-01-15T08:42:56;6.40;;;4.80;;
4957;SDS011;2494;51.872;9.688;2024-01-15T08:45:42;9.23;;;5.40;;
4957;SDS011;2494;51.872;9.688;2024-01-15T08:48:27;7.63;;;5.97;;
4957;SDS011;2494;51.872;9.688;2024-01-15T08:51:12;7.67;;;6.00;;
4957;SDS011;2494;51.872;9.688;2024-01-15T08:53:57;6.17;;;5.57;;
4957;SDS011;2494;51.872;9.688;2024-01-15T08:56:42;11.23;;;5.40;;
4957;SDS011;2494;51.872;9.688;2024-01-15T08:59:28;9.43;;;5.87;;
4957;SDS011;2494;51.872;9.688;2024-01-15T09:02:14;10.40;;;5.30;;
4957;SDS011;2494;51.872;9.688;2024-01-15T09:05:00;5.07;;;3.87;;
4957;SDS011;2494;51.872;9.688;2024-01-15T09:07:45;12.00;;;4.47;;
4957;SDS011;2494;51.872;9.688;2024-01-15T09:10:30;6.10;;;4.43;;
4957;SDS011;2494;51.872;9.688;2024-01-15T09:13:15;7.37;;;4.70;;
4957;SDS011;2494;51.872;9.688;2024-01-15T09:16:00;5.77;;;5.03;;
4957;SDS011;2494;51.872;9.688;2024-01-15T09:18:47;5.17;;;3.60;;
4957;SDS011;2494;51.872;9.688;2024-01-15T09:21:32;4.17;;;3.73;;
4957;SDS011;2494;51.872;9.688;2024-01-15T09:24:17;3.37;;;3.07;;
4957;SDS011;2494;51.872;9.688;2024-01-15T09:27:02;4.80;;;3.20;;
4957;SDS011;2494;51.872;9.688;2024-01-15T09:29:47;5.97;;;4.20;;
4957;SDS011;2494;51.872;9.688;2024-01-15T09:32:32;4.20;;;3.10;;
4957;SDS011;2494;51.872;9.688;2024-01-15T09:35:19;3.47;;;3.17;;
4957;SDS011;2494;51.872;9.688;2024-01-15T09:38:04;8.03;;;3.80;;
4957;SDS011;2494;51.872;9.688;2024-01-15T09:40:49;5.73;;;4.30;;
4957;SDS011;2494;51.872;9.688;2024-01-15T09:43:36;4.23;;;3.60;;
4957;SDS011;2494;51.872;9.688;2024-01-15T09:46:22;5.13;;;3.80;;
4957;SDS011;2494;51.872;9.688;2024-01-15T09:49:07;4.20;;;3.77;;
4957;SDS011;2494;51.872;9.688;2024-01-15T09:51:53;4.63;;;2.90;;
4957;SDS011;2494;51.872;9.688;2024-01-15T09:54:39;6.37;;;4.00;;
4957;SDS011;2494;51.872;9.688;2024-01-15T09:57:24;6.17;;;3.80;;
4957;SDS011;2494;51.872;9.688;2024-01-15T10:00:09;3.80;;;3.30;;
4957;SDS011;2494;51.872;9.688;2024-01-15T10:02:55;4.13;;;3.33;;
4957;SDS011;2494;51.872;9.688;2024-01-15T10:05:41;7.40;;;4.40;;
4957;SDS011;2494;51.872;9.688;2024-01-15T10:08:28;5.33;;;4.67;;
4957;SDS011;2494;51.872;9.688;2024-01-15T10:11:13;8.43;;;5.63;;
4957;SDS011;2494;51.872;9.688;2024-01-15T10:13:59;6.50;;;5.30;;
4957;SDS011;2494;51.872;9.688;2024-01-15T10:16:44;6.93;;;5.03;;
4957;SDS011;2494;51.872;9.688;2024-01-15T10:19:30;6.37;;;5.30;;
4957;SDS011;2494;51.872;9.688;2024-01-15T10:22:16;8.40;;;5.50;;
4957;SDS011;2494;51.872;9.688;2024-01-15T10:25:03;7.97;;;5.30;;
4957;SDS011;2494;51.872;9.688;2024-01-15T10:27:52;8.70;;;5.10;;
4957;SDS011;2494;51.872;9.688;2024-01-15T10:30:43;10.47;;;5.80;;
4957;SDS011;2494;51.872;9.688;2024-01-15T10:33:29;8.47;;;6.50;;
4957;SDS011;2494;51.872;9.688;2024-01-15T10:36:15;7.70;;;5.90;;
4957;SDS011;2494;51.872;9.688;2024-01-15T10:39:01;9.43;;;5.50;;
4957;SDS011;2494;51.872;9.688;2024-01-15T10:41:48;7.40;;;4.90;;
4957;SDS011;2494;51.872;9.688;2024-01-15T10:44:34;5.50;;;4.97;;
4957;SDS011;2494;51.872;9.688;2024-01-15T10:47:20;6.83;;;5.53;;
4957;SDS011;2494;51.872;9.688;2024-01-15T10:50:06;7.10;;;4.77;;
4957;SDS011;2494;51.872;9.688;2024-01-15T10:52:52;10.60;;;5.93;;
4957;SDS011;2494;51.872;9.688;2024-01-15T10:55:38;6.03;;;5.37;;
4957;SDS011;2494;51.872;9.688;2024-01-15T10:58:25;6.60;;;4.70;;
4957;SDS011;2494;51.872;9.688;2024-01-15T11:01:17;7.33;;;5.97;;
4957;SDS011;2494;51.872;9.688;2024-01-15T11:04:03;7.23;;;4.43;;
4957;SDS011;2494;51.872;9.688;2024-01-15T11:06:50;7.97;;;5.17;;
4957;SDS011;2494;51.872;9.688;2024-01-15T11:09:36;15.87;;;5.70;;
4957;SDS011;2494;51.872;9.688;2024-01-15T11:12:22;14.97;;;5.30;;
4957;SDS011;2494;51.872;9.688;2024-01-15T11:15:09;8.30;;;5.60;;
4957;SDS011;2494;51.872;9.688;2024-01-15T11:17:58;6.07;;;5.37;;
4957;SDS011;2494;51.872;9.688;2024-01-15T11:20:57;7.47;;;2.87;;
4957;SDS011;2494;51.872;9.688;2024-01-15T11:24:03;6.30;;;4.77;;
4957;SDS011;2494;51.872;9.688;2024-01-15T11:26:50;7.33;;;3.97;;
4957;SDS011;2494;51.872;9.688;2024-01-15T11:29:39;8.50;;;4.63;;
4957;SDS011;2494;51.872;9.688;2024-01-15T11:32:29;7.00;;;4.80;;
4957;SDS011;2494;51.872;9.688;2024-01-15T11:35:20;6.00;;;4.90;;
4957;SDS011;2494;51.872;9.688;2024-01-15T11:38:05;7.00;;;3.70;;
4957;SDS011;2494;51.872;9.688;2024-01-15T11:40:51;7.93;;;3.40;;
4957;SDS011;2494;51.872;9.688;2024-01-15T11:43:35;8.37;;;3.63;;
4957;SDS011;2494;51.872;9.688;2024-01-15T11:46:22;8.60;;;3.00;;
4957;SDS011;2494;51.872;9.688;2024-01-15T11:49:10;11.27;;;4.17;;
4957;SDS011;2494;51.872;9.688;2024-01-15T11:51:57;8.20;;;4.10;;
4957;SDS011;2494;51.872;9.688;2024-01-15T11:54:44;4.40;;;3.97;;
4957;SDS011;2494;51.872;9.688;2024-01-15T11:57:34;2.50;;;2.30;;
4957;SDS011;2494;51.872;9.688;2024-01-15T12:00:22;15.50;;;4.20;;
4957;SDS011;2494;51.872;9.688;2024-01-15T12:03:08;5.30;;;2.70;;
4957;SDS011;2494;51.872;9.688;2024-01-15T12:05:54;8.60;;;3.10;;
4957;SDS011;2494;51.872;9.688;2024-01-15T12:08:40;3.47;;;2.90;;
4957;SDS011;2494;51.872;9.688;2024-01-15T12:11:25;8.00;;;3.20;;
4957;SDS011;2494;51.872;9.688;2024-01-15T12:14:11;17.90;;;8.10;;
4957;SDS011;2494;51.872;9.688;2024-01-15T12:16:56;16.27;;;5.40;;
4957;SDS011;2494;51.872;9.688;2024-01-15T12:19:43;8.80;;;4.30;;
4957;SDS011;2494;51.872;9.688;2024-01-15T12:22:30;6.30;;;4.60;;
4957;SDS011;2494;51.872;9.688;2024-01-15T12:25:16;5.10;;;3.00;;
4957;SDS011;2494;51.872;9.688;2024-01-15T12:28:03;6.17;;;3.83;;
4957;SDS011;2494;51.872;9.688;2024-01-15T12:30:49;13.23;;;5.37;;
4957;SDS011;2494;51.872;9.688;2024-01-15T12:33:34;6.03;;;3.83;;
4957;SDS011;2494;51.872;9.688;2024-01-15T12:36:20;3.90;;;3.60;;
4957;SDS011;2494;51.872;9.688;2024-01-15T12:39:10;8.33;;;4.00;;
4957;SDS011;2494;51.872;9.688;2024-01-15T12:41:56;6.73;;;2.80;;
4957;SDS011;2494;51.872;9.688;2024-01-15T12:44:41;11.53;;;3.30;;
4957;SDS011;2494;51.872;9.688;2024-01-15T12:47:26;4.60;;;1.80;;
4957;SDS011;2494;51.872;9.688;2024-01-15T12:50:12;5.60;;;2.30;;
4957;SDS011;2494;51.872;9.688;2024-01-15T12:52:57;3.10;;;2.20;;
4957;SDS011;2494;51.872;9.688;2024-01-15T12:55:45;1.97;;;1.70;;
4957;SDS011;2494;51.872;9.688;2024-01-15T12:58:30;7.50;;;3.53;;
4957;SDS011;2494;51.872;9.688;2024-01-15T13:01:15;7.33;;;4.13;;
4957;SDS011;2494;51.872;9.688;2024-01-15T13:04:01;4.93;;;2.43;;
4957;SDS011;2494;51.872;9.688;2024-01-15T13:06:46;4.00;;;2.50;;
4957;SDS011;2494;51.872;9.688;2024-01-15T13:09:33;2.90;;;1.60;;
4957;SDS011;2494;51.872;9.688;2024-01-15T13:12:20;4.93;;;2.23;;
4957;SDS011;2494;51.872;9.688;2024-01-15T13:15:08;7.80;;;4.07;;
4957;SDS011;2494;51.872;9.688;2024-01-15T13:17:55;3.93;;;2.60;;
4957;SDS011;2494;51.872;9.688;2024-01-15T13:20:41;4.43;;;2.77;;
4957;SDS011;2494;51.872;9.688;2024-01-15T13:23:27;9.67;;;2.80;;
4957;SDS011;2494;51.872;9.688;2024-01-15T13:26:13;3.80;;;2.20;;
4957;SDS011;2494;51.872;9.688;2024-01-15T13:29:00;4.43;;;3.33;;
4957;SDS011;2494;51.872;9.688;2024-01-15T13:31:47;7.33;;;2.60;;
4957;SDS011;2494;51.872;9.688;2024-01-15T13:34:32;2.17;;;1.97;;
4957;SDS011;2494;51.872;9.688;2024-01-15T13:37:18;6.43;;;2.00;;
4957;SDS011;2494;51.872;9.688;2024-01-15T13:40:04;2.90;;;2.40;;
4957;SDS011;2494;51.872;9.688;2024-01-15T13:42:52;4.00;;;1.93;;
4957;SDS011;2494;51.872;9.688;2024-01-15T13:45:40;6.40;;;2.73;;
4957;SDS011;2494;51.872;9.688;2024-01-15T13:48:26;5.63;;;2.40;;
4957;SDS011;2494;51.872;9.688;2024-01-15T13:51:11;2.10;;;1.90;;
4957;SDS011;2494;51.872;9.688;2024-01-15T13:53:56;3.20;;;1.70;;
4957;SDS011;2494;51.872;9.688;2024-01-15T13:56:41;1.90;;;1.50;;
4957;SDS011;2494;51.872;9.688;2024-01-15T13:59:26;3.00;;;1.60;;
4957;SDS011;2494;51.872;9.688;2024-01-15T14:02:13;5.73;;;1.73;;
4957;SDS011;2494;51.872;9.688;2024-01-15T14:04:59;7.43;;;2.20;;
4957;SDS011;2494;51.872;9.688;2024-01-15T14:07:45;2.17;;;1.97;;
4957;SDS011;2494;51.872;9.688;2024-01-15T14:10:31;7.67;;;2.13;;
4957;SDS011;2494;51.872;9.688;2024-01-15T14:13:16;2.93;;;1.60;;
4957;SDS011;2494;51.872;9.688;2024-01-15T14:16:02;2.13;;;1.93;;
4957;SDS011;2494;51.872;9.688;2024-01-15T14:18:48;4.90;;;2.17;;
4957;SDS011;2494;51.872;9.688;2024-01-15T14:21:34;2.20;;;1.80;;
4957;SDS011;2494;51.872;9.688;2024-01-15T14:24:19;3.87;;;1.60;;
4957;SDS011;2494;51.872;9.688;2024-01-15T14:27:04;4.33;;;2.00;;
4957;SDS011;2494;51.872;9.688;2024-01-15T14:29:51;7.20;;;1.80;;
4957;SDS011;2494;51.872;9.688;2024-01-15T14:32:36;1.67;;;1.53;;
4957;SDS011;2494;51.872;9.688;2024-01-15T14:35:24;5.37;;;2.23;;
4957;SDS011;2494;51.872;9.688;2024-01-15T14:38:09;2.07;;;1.87;;
4957;SDS011;2494;51.872;9.688;2024-01-15T14:40:55;2.70;;;1.90;;
4957;SDS011;2494;51.872;9.688;2024-01-15T14:43:40;2.30;;;1.77;;
4957;SDS011;2494;51.872;9.688;2024-01-15T14:46:25;4.80;;;2.40;;
4957;SDS011;2494;51.872;9.688;2024-01-15T14:49:11;1.77;;;1.67;;
4957;SDS011;2494;51.872;9.688;2024-01-15T14:51:57;11.60;;;2.20;;
4957;SDS011;2494;51.872;9.688;2024-01-15T14:54:43;2.90;;;1.93;;
4957;SDS011;2494;51.872;9.688;2024-01-15T14:57:28;2.53;;;1.70;;
4957;SDS011;2494;51.872;9.688;2024-01-15T15:00:14;2.63;;;1.70;;
4957;SDS011;2494;51.872;9.688;2024-01-15T15:03:00;2.50;;;1.90;;
4957;SDS011;2494;51.872;9.688;2024-01-15T15:05:46;2.10;;;1.70;;
4957;SDS011;2494;51.872;9.688;2024-01-15T15:08:34;6.17;;;2.37;;
4957;SDS011;2494;51.872;9.688;2024-01-15T15:11:20;2.53;;;2.23;;
4957;SDS011;2494;51.872;9.688;2024-01-15T15:14:06;4.50;;;2.47;;
4957;SDS011;2494;51.872;9.688;2024-01-15T15:16:51;7.13;;;3.13;;
4957;SDS011;2494;51.872;9.688;2024-01-15T15:19:37;3.17;;;2.20;;
4957;SDS011;2494;51.872;9.688;2024-01-15T15:22:23;9.70;;;3.90;;
4957;SDS011;2494;51.872;9.688;2024-01-15T15:25:10;5.33;;;3.10;;
4957;SDS011;2494;51.872;9.688;2024-01-15T15:27:56;2.93;;;2.63;;
4957;SDS011;2494;51.872;9.688;2024-01-15T15:30:41;7.33;;;2.97;;
4957;SDS011;2494;51.872;9.688;2024-01-15T15:33:27;2.13;;;2.03;;
4957;SDS011;2494;51.872;9.688;2024-01-15T15:36:12;2.50;;;2.30;;
4957;SDS011;2494;51.872;9.688;2024-01-15T15:38:58;2.50;;;2.30;;
4957;SDS011;2494;51.872;9.688;2024-01-15T15:41:44;6.07;;;2.40;;
4957;SDS011;2494;51.872;9.688;2024-01-15T15:44:30;3.63;;;2.33;;
4957;SDS011;2494;51.872;9.688;2024-01-15T15:47:15;4.00;;;3.53;;
4957;SDS011;2494;51.872;9.688;2024-01-15T15:50:01;2.70;;;2.43;;
4957;SDS011;2494;51.872;9.688;2024-01-15T15:52:47;2.77;;;2.20;;
4957;SDS011;2494;51.872;9.688;2024-01-15T15:55:33;2.77;;;2.30;;
4957;SDS011;2494;51.872;9.688;2024-01-15T15:58:21;3.40;;;1.93;;
4957;SDS011;2494;51.872;9.688;2024-01-15T16:01:06;1.50;;;1.40;;
4957;SDS011;2494;51.872;9.688;2024-01-15T16:03:52;2.80;;;1.87;;
4957;SDS011;2494;51.872;9.688;2024-01-15T16:06:37;3.47;;;3.00;;
4957;SDS011;2494;51.872;9.688;2024-01-15T16:09:23;2.93;;;1.97;;
4957;SDS011;2494;51.872;9.688;2024-01-15T16:12:08;8.10;;;3.03;;
4957;SDS011;2494;51.872;9.688;2024-01-15T16:14:54;2.50;;;1.57;;
4957;SDS011;2494;51.872;9.688;2024-01-15T16:17:40;4.20;;;2.13;;
4957;SDS011;2494;51.872;9.688;2024-01-15T16:20:25;5.03;;;1.60;;
4957;SDS011;2494;51.872;9.688;2024-01-15T16:23:10;2.83;;;1.47;;
4957;SDS011;2494;51.872;9.688;2024-01-15T16:25:57;1.70;;;1.60;;
4957;SDS011;2494;51.872;9.688;2024-01-15T16:28:42;4.47;;;1.90;;
4957;SDS011;2494;51.872;9.688;2024-01-15T16:31:29;1.40;;;1.30;;
4957;SDS011;2494;51.872;9.688;2024-01-15T16:34:14;1.10;;;1.00;;
4957;SDS011;2494;51.872;9.688;2024-01-15T16:36:59;1.67;;;1.30;;
4957;SDS011;2494;51.872;9.688;2024-01-15T16:39:44;1.80;;;1.67;;
4957;SDS011;2494;51.872;9.688;2024-01-15T16:42:29;2.37;;;1.87;;
4957;SDS011;2494;51.872;9.688;2024-01-15T16:45:14;1.70;;;1.60;;
4957;SDS011;2494;51.872;9.688;2024-01-15T16:48:00;2.00;;;1.30;;
4957;SDS011;2494;51.872;9.688;2024-01-15T16:50:45;1.40;;;1.30;;
4957;SDS011;2494;51.872;9.688;2024-01-15T16:53:30;0.90;;;0.90;;
4957;SDS011;2494;51.872;9.688;2024-01-15T16:56:15;1.60;;;1.50;;
4957;SDS011;2494;51.872;9.688;2024-01-15T16:59:01;1.70;;;1.30;;
4957;SDS011;2494;51.872;9.688;2024-01-15T17:01:46;1.40;;;1.20;;